Lamb, Illinois
Current Conditions -  °F | °C
As of 9:55 AM on Friday 24 Oct 2014 (Local Time) from K5M9 Reporting Station
Scattered Clouds Scattered Clouds  
Wind Chill: 56°   Ceiling: Unl
Heat Index: 56°   Visibility: 10mi
Dew Point: 47°   Wind: 5mph
Humidity: 73%   Direction: 270°W
Pressure: 30.13"   Gusts: NA
Location:  37.5407°N, 88.2414°W
Report Text: K5M9 241455Z AUTO 27004KT 10SM SCT040 SCT048 13/09 A3013 RMK AO2 T01340086
Loading
Personal Weather Stations






























Interactive Weather Map New forecast layout! Learn more

10-Day Weather Forecast

Advertisements
Track Severe Weather on mobile